CSATM LPSR-LPSR

Flight info

Callsign CSATM
Flight time N/A
Altitude 2500
Route DCT SMAGO DCT
Aircraft C152/L-SDFY/S

Departure

Time 2026-05-05 17:48
Airport Santarém Airfield (LPSR)

Arrival

Time N/A
Airport Santarém Airfield (LPSR)
Time Latitude Longitude Altitude Speed Heading
2026-05-05 17:33 39.20817 -8.68717 45 ft 0 kts 134°
2026-05-05 17:37 39.20812 -8.68709 45 ft 1 kts 79°
2026-05-05 17:37 39.20840 -8.68743 44 ft 11 kts 253°
2026-05-05 17:38 39.20847 -8.68826 47 ft 8 kts 301°
2026-05-05 17:38 39.20899 -8.68799 47 ft 21 kts 43°
2026-05-05 17:38 39.21116 -8.68481 79 ft 60 kts 37°
2026-05-05 17:38 39.21387 -8.68011 213 ft 69 kts 46°
2026-05-05 17:39 39.21430 -8.67407 337 ft 82 kts 123°
2026-05-05 17:39 39.20919 -8.67092 417 ft 86 kts 184°
2026-05-05 17:39 39.20304 -8.67150 469 ft 92 kts 191°
2026-05-05 17:39 39.19653 -8.67357 484 ft 103 kts 202°
2026-05-05 17:40 39.18971 -8.67655 461 ft 103 kts 204°
2026-05-05 17:40 39.18320 -8.67983 422 ft 97 kts 209°
2026-05-05 17:40 39.17729 -8.68285 466 ft 89 kts 212°
2026-05-05 17:40 39.17158 -8.68628 545 ft 92 kts 216°
2026-05-05 17:41 39.16600 -8.69058 542 ft 96 kts 217°
2026-05-05 17:41 39.16027 -8.69490 608 ft 92 kts 220°
2026-05-05 17:41 39.15460 -8.69923 613 ft 97 kts 218°
2026-05-05 17:41 39.14861 -8.70371 526 ft 102 kts 214°
2026-05-05 17:42 39.14210 -8.70751 493 ft 101 kts 210°
2026-05-05 17:42 39.13569 -8.71077 512 ft 97 kts 214°
2026-05-05 17:42 39.12989 -8.71468 519 ft 91 kts 217°
2026-05-05 17:42 39.12455 -8.71842 587 ft 85 kts 220°
2026-05-05 17:43 39.11960 -8.72298 560 ft 88 kts 233°
2026-05-05 17:43 39.11481 -8.72808 579 ft 92 kts 232°
2026-05-05 17:43 39.10968 -8.73341 615 ft 96 kts 228°
2026-05-05 17:43 39.10431 -8.73824 605 ft 93 kts 230°
2026-05-05 17:44 39.09923 -8.74332 553 ft 95 kts 225°
2026-05-05 17:44 39.09372 -8.74816 578 ft 98 kts 223°
2026-05-05 17:44 39.08795 -8.75319 603 ft 104 kts 228°
2026-05-05 17:44 39.08194 -8.75877 429 ft 105 kts 228°
2026-05-05 17:45 39.07654 -8.76389 114 ft 87 kts 227°
2026-05-05 17:45 39.07198 -8.76823 61 ft 83 kts 228°
2026-05-05 17:45 39.06674 -8.77159 218 ft 90 kts 191°
2026-05-05 17:45 39.06109 -8.77426 242 ft 87 kts 247°
2026-05-05 17:46 39.05926 -8.78160 262 ft 84 kts 270°
2026-05-05 17:46 39.05740 -8.78846 355 ft 84 kts 261°
2026-05-05 17:46 39.05518 -8.79535 367 ft 68 kts 283°
2026-05-05 17:46 39.05894 -8.79890 224 ft 73 kts 331°
2026-05-05 17:47 39.06316 -8.80174 73 ft 62 kts 332°
2026-05-05 17:47 39.06670 -8.80414 27 ft 60 kts 330°
2026-05-05 17:47 39.06796 -8.80765 228 ft 66 kts 239°
2026-05-05 17:47 39.06302 -8.80804 332 ft 93 kts 143°
2026-05-05 17:48 39.05723 -8.80408 483 ft 90 kts 173°
2026-05-05 17:48 39.05111 -8.80229 704 ft 89 kts 175°
2026-05-05 17:48 39.04496 -8.80092 889 ft 93 kts 179°
2026-05-05 17:48 39.03823 -8.79953 925 ft 102 kts 180°
2026-05-05 17:49 39.03098 -8.79741 960 ft 105 kts 161°
2026-05-05 17:49 39.02379 -8.79484 896 ft 110 kts 175°
2026-05-05 17:49 39.01608 -8.79355 863 ft 112 kts 183°
2026-05-05 17:49 39.00825 -8.79280 849 ft 117 kts 180°
2026-05-05 17:50 39.00016 -8.79169 865 ft 115 kts 180°
2026-05-05 17:50 38.99226 -8.79035 844 ft 113 kts 180°
2026-05-05 17:50 38.98440 -8.78910 776 ft 116 kts 183°
2026-05-05 17:50 38.97633 -8.78836 689 ft 116 kts 188°
2026-05-05 17:51 38.96825 -8.78896 643 ft 115 kts 192°
2026-05-05 17:51 38.96041 -8.79002 577 ft 111 kts 188°
2026-05-05 17:51 38.95272 -8.79049 561 ft 113 kts 184°
2026-05-05 17:51 38.94493 -8.79031 550 ft 109 kts 186°
2026-05-05 17:52 38.93765 -8.79072 493 ft 100 kts 192°
2026-05-05 17:52 38.93068 -8.79027 472 ft 100 kts 180°
2026-05-05 17:52 38.92375 -8.78877 445 ft 106 kts 179°
2026-05-05 17:52 38.91631 -8.78742 507 ft 106 kts 181°
2026-05-05 17:53 38.91027 -8.78971 624 ft 89 kts 206°
2026-05-05 17:53 38.90416 -8.78984 790 ft 89 kts 186°
2026-05-05 17:53 38.89925 -8.78652 915 ft 80 kts 87°
2026-05-05 17:53 38.90157 -8.78175 725 ft 62 kts 14°
2026-05-05 17:54 38.90534 -8.78124 474 ft 55 kts 335°
2026-05-05 17:54 38.90861 -8.78296 266 ft 46 kts 329°
2026-05-05 17:54 38.91157 -8.78509 147 ft 46 kts 330°
2026-05-05 17:54 38.91396 -8.78681 110 ft 22 kts 333°
2026-05-05 17:55 38.91419 -8.78763 110 ft 8 kts 201°
2026-05-05 17:55 38.91364 -8.78732 110 ft 10 kts 149°
2026-05-05 17:55 38.91318 -8.78701 109 ft 0 kts 170°